Time;durP1;ratioP1;P1;durP2;ratioP2;P2;SDS_P1;SDS_P2;PMS_P1;PMS_P2;Temp;Humidity;BMP_temperature;BMP_pressure;BME280_temperature;BME280_humidity;BME280_pressure;Samples;Min_cycle;Max_cycle;Signal;HPM_P1;HPM_P2
2021/08/10 00:01:33;;;;;;;7.72;2.33;;;16.50;81.70;;;;;;5090393;28;20044;-90
2021/08/10 00:04:00;;;;;;;6.30;2.65;;;16.50;81.80;;;;;;5091356;28;20052;-91
2021/08/10 00:06:27;;;;;;;8.32;2.40;;;16.50;81.80;;;;;;5091828;28;20090;-92
2021/08/10 00:08:54;;;;;;;12.40;2.83;;;16.50;81.80;;;;;;5092964;28;20048;-91
2021/08/10 00:11:21;;;;;;;9.40;2.65;;;16.50;81.80;;;;;;5092694;28;20047;-92
2021/08/10 00:13:48;;;;;;;14.13;2.28;;;16.40;81.80;;;;;;5090750;28;20098;-91
2021/08/10 00:16:14;;;;;;;9.50;2.65;;;16.50;81.80;;;;;;5091292;28;20044;-92
2021/08/10 00:18:41;;;;;;;6.32;2.65;;;16.40;81.70;;;;;;5091325;28;20051;-91
2021/08/10 00:21:08;;;;;;;8.13;2.25;;;16.40;81.70;;;;;;5091670;28;20126;-92
2021/08/10 00:23:35;;;;;;;19.70;2.30;;;16.40;81.70;;;;;;5092630;28;20048;-93
2021/08/10 00:26:03;;;;;;;11.60;2.53;;;16.40;81.60;;;;;;5091417;28;20116;-92
2021/08/10 00:28:29;;;;;;;10.57;2.17;;;16.40;81.70;;;;;;5091280;28;20052;-91
2021/08/10 00:30:56;;;;;;;9.30;2.55;;;16.40;81.70;;;;;;5089947;28;20044;-92
2021/08/10 00:33:23;;;;;;;9.75;2.90;;;16.40;81.70;;;;;;5089985;28;20043;-93
2021/08/10 00:35:50;;;;;;;7.70;2.20;;;16.40;81.80;;;;;;5092670;28;20074;-90
2021/08/10 00:38:17;;;;;;;14.27;2.10;;;16.30;81.80;;;;;;5090565;28;20044;-91
2021/08/10 00:40:44;;;;;;;14.32;2.78;;;16.40;81.80;;;;;;5089886;28;20066;-92
2021/08/10 00:43:32;;;;;;;5.22;2.03;;;16.30;81.80;;;;;;5091072;28;20563;-91
2021/08/10 00:46:01;;;;;;;15.18;2.50;;;16.30;81.80;;;;;;5090202;28;20105;-91
2021/08/10 00:48:28;;;;;;;15.60;2.25;;;16.30;81.80;;;;;;5090443;28;20085;-90
2021/08/10 00:50:55;;;;;;;6.70;2.28;;;16.30;81.90;;;;;;5092397;28;20048;-90
2021/08/10 00:53:23;;;;;;;10.23;2.47;;;16.20;82.00;;;;;;5092220;28;20093;-93
2021/08/10 00:55:50;;;;;;;13.38;2.10;;;16.20;82.00;;;;;;5090917;28;20059;-91
2021/08/10 00:58:17;;;;;;;11.75;2.30;;;16.20;81.90;;;;;;5090893;28;20044;-92
2021/08/10 01:00:44;;;;;;;7.35;2.30;;;16.20;81.90;;;;;;5091113;28;20090;-91
2021/08/10 01:03:13;;;;;;;12.20;2.22;;;16.20;81.90;;;;;;5090482;28;20059;-90
2021/08/10 01:05:49;;;;;;;7.18;2.15;;;16.10;81.90;;;;;;5092384;28;20052;-89
2021/08/10 01:08:35;;;;;;;7.80;2.15;;;16.10;82.00;;;;;;5088866;28;20498;-92
2021/08/10 01:11:17;;;;;;;21.75;2.45;;;16.10;82.00;;;;;;5089752;28;20071;-91
2021/08/10 01:13:52;;;;;;;6.78;2.30;;;16.00;82.00;;;;;;5090912;28;20040;-92
2021/08/10 01:16:19;;;;;;;8.85;2.22;;;16.00;82.10;;;;;;5090914;28;20129;-90
2021/08/10 01:18:55;;;;;;;8.45;2.40;;;16.00;82.10;;;;;;5089093;28;20044;-91
2021/08/10 01:21:36;;;;;;;10.38;2.50;;;16.00;82.10;;;;;;5075613;28;20044;-92
2021/08/10 01:24:17;;;;;;;10.43;2.72;;;16.00;82.20;;;;;;5091080;28;20117;-92
2021/08/10 01:27:09;;;;;;;15.15;2.40;;;15.90;82.30;;;;;;5088287;28;20164;-90
2021/08/10 01:29:50;;;;;;;12.70;2.25;;;15.90;82.40;;;;;;5091643;28;20494;-93
2021/08/10 01:32:17;;;;;;;14.52;2.70;;;15.90;82.40;;;;;;5089733;28;20138;-92
2021/08/10 01:34:47;;;;;;;15.00;2.20;;;15.90;82.50;;;;;;5090508;28;20040;-92
2021/08/10 01:37:26;;;;;;;9.80;2.25;;;15.90;82.60;;;;;;5090528;28;20047;-92
2021/08/10 01:40:00;;;;;;;11.98;2.55;;;15.90;82.70;;;;;;5090614;28;20044;-92
2021/08/10 01:42:27;;;;;;;14.48;2.72;;;15.90;82.70;;;;;;5090413;28;20078;-93
2021/08/10 01:44:57;;;;;;;7.43;2.17;;;15.80;82.70;;;;;;5091022;28;20048;-92
2021/08/10 01:47:24;;;;;;;15.65;2.70;;;15.90;82.70;;;;;;5091521;28;20102;-93
2021/08/10 01:49:52;;;;;;;10.00;2.25;;;15.90;82.70;;;;;;5088905;28;20044;-90
2021/08/10 01:52:22;;;;;;;11.90;2.35;;;15.80;82.70;;;;;;5090103;28;20444;-91
2021/08/10 01:54:50;;;;;;;15.20;2.15;;;15.90;82.70;;;;;;5090475;28;20494;-91
2021/08/10 01:57:18;;;;;;;5.55;2.05;;;15.90;82.80;;;;;;5071700;28;20572;-92
2021/08/10 01:59:50;;;;;;;8.02;1.92;;;15.90;82.80;;;;;;5091819;28;20048;-91
2021/08/10 02:02:17;;;;;;;6.93;2.38;;;15.90;82.80;;;;;;5093081;28;20093;-92
2021/08/10 02:04:47;;;;;;;7.43;2.42;;;15.90;82.80;;;;;;5094057;28;20060;-93
2021/08/10 02:07:14;;;;;;;5.63;2.00;;;15.90;82.80;;;;;;5093879;28;20489;-91
2021/08/10 02:09:42;;;;;;;11.35;2.42;;;15.90;82.80;;;;;;5094107;28;20044;-90
2021/08/10 02:12:10;;;;;;;21.38;2.85;;;15.90;82.80;;;;;;5094080;28;20101;-92
2021/08/10 02:14:38;;;;;;;13.20;2.25;;;15.90;82.90;;;;;;5095721;28;20048;-91
2021/08/10 02:17:07;;;;;;;17.17;2.33;;;15.90;82.90;;;;;;5093725;28;20047;-91
2021/08/10 02:19:35;;;;;;;11.38;2.25;;;15.90;82.90;;;;;;5093803;28;20044;-92
2021/08/10 02:22:04;;;;;;;6.88;2.30;;;15.90;83.00;;;;;;5093909;28;20082;-91
2021/08/10 02:24:59;;;;;;;15.27;2.03;;;15.90;83.10;;;;;;5093691;28;20117;-90
2021/08/10 02:27:36;;;;;;;8.68;2.55;;;15.90;83.10;;;;;;5098527;27;20107;-91
2021/08/10 02:30:14;;;;;;;13.63;2.30;;;15.90;83.10;;;;;;5093409;28;20483;-93
2021/08/10 02:32:43;;;;;;;9.10;2.17;;;15.90;83.10;;;;;;5095879;28;20048;-93
2021/08/10 02:35:15;;;;;;;7.20;2.15;;;15.90;83.20;;;;;;5093496;28;20052;-91
2021/08/10 02:37:43;;;;;;;16.67;2.72;;;15.90;83.20;;;;;;5092006;28;20085;-90
2021/08/10 02:40:14;;;;;;;7.85;2.40;;;15.90;83.20;;;;;;5093448;28;20048;-91
2021/08/10 02:42:44;;;;;;;18.40;2.63;;;15.90;83.20;;;;;;5093586;28;20059;-91
2021/08/10 02:45:11;;;;;;;7.60;2.58;;;16.00;83.20;;;;;;5093123;28;20085;-91
2021/08/10 02:47:38;;;;;;;4.80;2.33;;;16.00;83.30;;;;;;5095525;28;20051;-90
2021/08/10 02:50:06;;;;;;;6.25;2.50;;;15.90;83.30;;;;;;5093085;28;20056;-93
2021/08/10 02:52:33;;;;;;;11.88;2.72;;;16.00;83.40;;;;;;5092909;28;20052;-91
2021/08/10 02:55:00;;;;;;;8.73;2.78;;;15.90;83.40;;;;;;5093432;28;20423;-90
2021/08/10 02:57:33;;;;;;;8.07;2.55;;;15.90;83.40;;;;;;5093094;28;20043;-91
2021/08/10 03:00:09;;;;;;;8.20;2.67;;;16.00;83.40;;;;;;5093321;28;20048;-90
2021/08/10 03:02:41;;;;;;;6.68;2.53;;;15.90;83.40;;;;;;5094026;28;20052;-90
2021/08/10 03:05:12;;;;;;;10.07;2.65;;;15.90;83.40;;;;;;5092945;28;20101;-94
2021/08/10 03:07:44;;;;;;;11.10;2.95;;;15.90;83.30;;;;;;5091556;28;20494;-92
2021/08/10 03:10:14;;;;;;;7.85;2.72;;;16.00;83.40;;;;;;5091267;28;20876;-93
2021/08/10 03:12:48;;;;;;;10.45;3.33;;;15.90;83.40;;;;;;5092625;28;20079;-92
2021/08/10 03:15:21;;;;;;;11.43;2.95;;;15.90;83.40;;;;;;5076602;28;20048;-92
2021/08/10 03:17:52;;;;;;;8.68;2.88;;;15.90;83.50;;;;;;5091090;28;20052;-92
2021/08/10 03:20:21;;;;;;;6.68;2.80;;;15.90;83.50;;;;;;5092419;28;20070;-89
2021/08/10 03:22:49;;;;;;;11.52;3.83;;;15.90;83.50;;;;;;5092461;28;20056;-90
2021/08/10 03:25:18;;;;;;;12.40;3.90;;;15.90;83.50;;;;;;5092527;28;20040;-92
2021/08/10 03:27:49;;;;;;;9.02;3.47;;;15.90;83.60;;;;;;5092195;28;20048;-92
2021/08/10 03:30:18;;;;;;;7.93;3.08;;;15.90;83.60;;;;;;5092640;28;20047;-92
2021/08/10 03:32:46;;;;;;;7.00;2.85;;;16.00;83.70;;;;;;5090262;28;20391;-92
2021/08/10 03:35:14;;;;;;;6.75;3.05;;;15.90;83.70;;;;;;5091297;28;20413;-90
2021/08/10 03:37:42;;;;;;;13.02;3.53;;;15.90;83.80;;;;;;5091950;28;20051;-88
2021/08/10 03:40:09;;;;;;;13.15;4.07;;;16.00;83.80;;;;;;5092213;28;20460;-91
2021/08/10 03:42:36;;;;;;;8.73;3.13;;;15.90;83.80;;;;;;5091867;28;20105;-91
2021/08/10 03:45:04;;;;;;;15.25;3.22;;;15.90;83.90;;;;;;5093193;28;20098;-90
2021/08/10 03:47:32;;;;;;;8.30;3.50;;;16.00;83.90;;;;;;5092222;28;20101;-92
2021/08/10 03:50:00;;;;;;;11.05;3.00;;;16.00;83.90;;;;;;5092061;28;20052;-90
2021/08/10 03:52:27;;;;;;;8.40;3.05;;;15.90;83.90;;;;;;5092049;28;20460;-90
2021/08/10 03:54:54;;;;;;;6.63;2.75;;;16.00;84.00;;;;;;5090509;28;20552;-93
2021/08/10 03:57:21;;;;;;;10.60;3.33;;;16.00;83.90;;;;;;5091361;28;20044;-91
2021/08/10 03:59:53;;;;;;;8.20;3.67;;;16.10;84.00;;;;;;5093661;28;20436;-90
2021/08/10 04:02:21;;;;;;;10.20;3.10;;;16.00;84.00;;;;;;5090287;28;20505;-92
2021/08/10 04:04:54;;;;;;;9.18;2.97;;;16.00;84.00;;;;;;5091444;28;20142;-89
2021/08/10 04:07:21;;;;;;;11.32;3.10;;;16.10;84.00;;;;;;5091390;28;20538;-91
2021/08/10 04:09:49;;;;;;;8.75;3.55;;;16.10;84.00;;;;;;5091449;28;20094;-92
2021/08/10 04:12:16;;;;;;;14.93;3.63;;;16.00;84.00;;;;;;5091242;28;20040;-93
2021/08/10 04:14:44;;;;;;;16.80;3.75;;;16.10;84.00;;;;;;5093487;28;20134;-90
2021/08/10 04:17:12;;;;;;;12.75;3.33;;;16.10;84.00;;;;;;5091098;28;20498;-93
2021/08/10 04:19:48;;;;;;;7.28;3.22;;;16.10;84.00;;;;;;5091285;28;20097;-92
2021/08/10 04:22:17;;;;;;;6.93;3.22;;;16.10;84.00;;;;;;5090232;28;20464;-92
2021/08/10 04:24:44;;;;;;;8.60;3.58;;;16.10;84.00;;;;;;5089790;28;20047;-91
2021/08/10 04:27:13;;;;;;;6.50;3.05;;;16.10;84.00;;;;;;5090731;28;20052;-91
2021/08/10 04:29:40;;;;;;;7.55;3.47;;;16.20;83.90;;;;;;5093308;28;20101;-90
2021/08/10 04:32:08;;;;;;;9.77;3.15;;;16.10;83.90;;;;;;5091042;28;20052;-88
2021/08/10 04:34:39;;;;;;;9.05;3.03;;;16.10;83.80;;;;;;5089537;28;20097;-90
2021/08/10 04:37:06;;;;;;;11.75;3.20;;;16.10;83.70;;;;;;5091079;28;20051;-90
2021/08/10 04:39:33;;;;;;;4.70;2.75;;;16.10;83.60;;;;;;5090730;28;20044;-90
2021/08/10 04:42:00;;;;;;;11.90;3.03;;;16.10;83.60;;;;;;5091337;28;20513;-90
2021/08/10 04:44:31;;;;;;;9.27;2.80;;;16.10;83.50;;;;;;5091150;28;20055;-91
2021/08/10 04:46:58;;;;;;;10.75;3.17;;;16.10;83.40;;;;;;5090901;28;20048;-91
2021/08/10 04:49:24;;;;;;;5.60;2.55;;;16.10;83.40;;;;;;5090622;28;20558;-90
2021/08/10 04:51:51;;;;;;;10.38;3.30;;;16.00;83.30;;;;;;5090710;28;20078;-88
2021/08/10 04:54:18;;;;;;;11.20;3.08;;;16.00;83.30;;;;;;5090611;28;20098;-90
2021/08/10 04:56:45;;;;;;;8.80;3.03;;;16.00;83.30;;;;;;5088402;28;20044;-90
2021/08/10 04:59:12;;;;;;;5.95;2.75;;;15.90;83.20;;;;;;5090684;28;20108;-90
2021/08/10 05:01:39;;;;;;;6.57;2.83;;;16.00;83.20;;;;;;5090739;28;20040;-90
2021/08/10 05:04:07;;;;;;;7.13;3.30;;;16.00;83.20;;;;;;5089337;28;20048;-91
2021/08/10 05:06:36;;;;;;;8.70;3.60;;;15.90;83.10;;;;;;5090515;28;20563;-91
2021/08/10 05:09:06;;;;;;;9.63;3.10;;;15.90;83.10;;;;;;5090334;28;20048;-89
2021/08/10 05:11:33;;;;;;;5.18;2.83;;;15.90;83.20;;;;;;5091631;28;20040;-92
2021/08/10 05:14:00;;;;;;;12.27;3.53;;;15.90;83.20;;;;;;5089309;28;20048;-91
2021/08/10 05:16:27;;;;;;;8.32;3.72;;;15.90;83.20;;;;;;5090518;28;20048;-92
2021/08/10 05:18:54;;;;;;;5.95;2.85;;;15.90;83.30;;;;;;5090504;28;20048;-89
2021/08/10 05:21:21;;;;;;;9.30;3.25;;;15.90;83.30;;;;;;5090636;28;20049;-90
2021/08/10 05:23:48;;;;;;;11.60;3.40;;;15.90;83.30;;;;;;5092560;28;20051;-90
2021/08/10 05:26:15;;;;;;;7.78;3.88;;;15.80;83.40;;;;;;5091058;28;20048;-91
2021/08/10 05:28:42;;;;;;;7.43;3.72;;;15.80;83.40;;;;;;5090397;28;20051;-91
2021/08/10 05:31:09;;;;;;;9.65;3.50;;;15.80;83.50;;;;;;5090572;28;20105;-91
2021/08/10 05:33:36;;;;;;;5.32;3.20;;;15.80;83.50;;;;;;5092481;28;20043;-89
2021/08/10 05:36:03;;;;;;;20.17;4.13;;;15.80;83.60;;;;;;5094602;28;20459;-90
2021/08/10 05:38:31;;;;;;;8.85;3.78;;;15.80;83.70;;;;;;5094349;28;20040;-92
2021/08/10 05:40:58;;;;;;;6.82;3.38;;;15.80;83.70;;;;;;5094429;28;20052;-91
2021/08/10 05:43:24;;;;;;;8.88;3.85;;;15.80;83.80;;;;;;5093180;28;20097;-91
2021/08/10 05:45:51;;;;;;;5.75;3.60;;;15.70;83.80;;;;;;5094549;28;20047;-89
2021/08/10 05:48:18;;;;;;;16.02;3.80;;;15.70;83.90;;;;;;5094567;28;20458;-90
2021/08/10 05:50:46;;;;;;;8.82;3.53;;;15.70;84.00;;;;;;5092222;28;20051;-90
2021/08/10 05:53:13;;;;;;;7.50;3.75;;;15.70;84.10;;;;;;5093482;28;20048;-91
2021/08/10 05:55:40;;;;;;;9.88;4.50;;;15.70;84.20;;;;;;5094256;28;20048;-90
2021/08/10 05:58:06;;;;;;;8.38;4.13;;;15.80;84.20;;;;;;5093854;28;20555;-91
2021/08/10 06:00:33;;;;;;;10.60;4.55;;;15.80;84.30;;;;;;5094162;28;20075;-89
2021/08/10 06:03:00;;;;;;;13.00;5.20;;;15.80;84.40;;;;;;5094589;28;20090;-90
2021/08/10 06:05:27;;;;;;;7.70;4.75;;;15.80;84.40;;;;;;5095887;28;20080;-91
2021/08/10 06:07:54;;;;;;;7.40;4.63;;;15.80;84.50;;;;;;5093427;28;20044;-91
2021/08/10 06:10:21;;;;;;;12.20;4.63;;;15.90;84.60;;;;;;5093935;28;20048;-92
2021/08/10 06:12:48;;;;;;;10.88;4.47;;;15.90;84.60;;;;;;5093940;28;20109;-91
2021/08/10 06:15:16;;;;;;;6.05;3.47;;;15.90;84.70;;;;;;5093929;28;20055;-92
2021/08/10 06:17:42;;;;;;;14.32;4.30;;;15.90;84.70;;;;;;5095852;28;20056;-89
2021/08/10 06:20:10;;;;;;;7.88;4.05;;;16.00;84.70;;;;;;5092464;28;20052;-90
2021/08/10 06:22:37;;;;;;;7.78;4.05;;;16.00;84.70;;;;;;5091924;28;20505;-91
2021/08/10 06:25:05;;;;;;;8.02;4.18;;;16.00;84.80;;;;;;5093445;28;20044;-91
2021/08/10 06:27:31;;;;;;;12.70;5.60;;;16.10;84.90;;;;;;5093615;28;20040;-89
2021/08/10 06:29:58;;;;;;;9.20;4.72;;;16.20;85.00;;;;;;5094618;28;20416;-92
2021/08/10 06:32:25;;;;;;;10.98;4.95;;;16.20;85.00;;;;;;5093098;28;20052;-89
2021/08/10 06:34:52;;;;;;;8.13;4.43;;;16.30;85.10;;;;;;5093333;28;20093;-91
2021/08/10 06:37:19;;;;;;;9.98;4.18;;;16.30;85.20;;;;;;5093035;28;20052;-89
2021/08/10 06:39:46;;;;;;;9.82;3.83;;;16.30;85.10;;;;;;5093622;28;20077;-92
2021/08/10 06:42:12;;;;;;;10.32;5.68;;;16.40;85.10;;;;;;5093392;28;20044;-92
2021/08/10 06:44:39;;;;;;;14.35;5.13;;;16.40;85.10;;;;;;5094492;28;20469;-90
2021/08/10 06:47:10;;;;;;;11.65;4.20;;;16.50;85.10;;;;;;5093106;28;20101;-89
2021/08/10 06:49:38;;;;;;;10.85;4.90;;;16.50;85.10;;;;;;5093131;28;20097;-92
2021/08/10 06:52:07;;;;;;;9.15;4.38;;;16.60;85.10;;;;;;5092696;28;20489;-93
2021/08/10 06:54:34;;;;;;;11.95;6.80;;;16.60;85.00;;;;;;5092989;28;20059;-92
2021/08/10 06:57:10;;;;;;;9.85;6.10;;;16.60;85.00;;;;;;5093156;28;20044;-87
2021/08/10 06:59:37;;;;;;;8.73;6.45;;;16.60;85.10;;;;;;5093592;28;20048;-90
2021/08/10 07:02:06;;;;;;;14.13;7.22;;;16.70;85.20;;;;;;5076471;28;20098;-88
2021/08/10 07:04:35;;;;;;;8.95;6.15;;;16.80;85.30;;;;;;5087479;28;20146;-88
2021/08/10 07:07:06;;;;;;;17.65;7.68;;;16.80;85.30;;;;;;5085489;28;20041;-89
2021/08/10 07:09:33;;;;;;;13.65;7.35;;;16.90;85.40;;;;;;5094457;28;20118;-90
2021/08/10 07:12:00;;;;;;;9.73;5.78;;;16.90;85.50;;;;;;5090396;28;20048;-88
2021/08/10 07:14:27;;;;;;;21.80;8.32;;;17.00;85.50;;;;;;5074925;28;20045;-90
2021/08/10 07:16:54;;;;;;;13.27;7.60;;;17.00;85.50;;;;;;5078502;28;20048;-91
2021/08/10 07:19:21;;;;;;;15.63;7.82;;;17.10;85.50;;;;;;5077652;28;20518;-89
2021/08/10 07:21:48;;;;;;;13.98;8.15;;;17.10;85.50;;;;;;5089166;28;20101;-91
2021/08/10 07:24:15;;;;;;;12.70;8.25;;;17.10;85.50;;;;;;5073553;28;20185;-88
2021/08/10 07:26:43;;;;;;;11.75;8.30;;;17.20;85.50;;;;;;5092660;28;20057;-89
2021/08/10 07:29:09;;;;;;;12.73;9.10;;;17.30;85.50;;;;;;5078969;28;20454;-90
2021/08/10 07:31:36;;;;;;;17.92;8.63;;;17.30;85.60;;;;;;5078062;28;20049;-88
2021/08/10 07:34:04;;;;;;;14.52;9.35;;;17.30;85.50;;;;;;5078824;28;20060;-89
2021/08/10 07:36:30;;;;;;;11.73;7.57;;;17.40;85.40;;;;;;5089526;28;20044;-89
2021/08/10 07:38:57;;;;;;;9.57;7.28;;;17.40;85.40;;;;;;5088566;28;20048;-88
2021/08/10 07:41:24;;;;;;;13.75;8.88;;;17.40;85.30;;;;;;5079058;28;20048;-87
2021/08/10 07:43:51;;;;;;;12.23;8.57;;;17.40;85.30;;;;;;5079468;28;20049;-88
2021/08/10 07:46:18;;;;;;;12.88;9.18;;;17.40;85.30;;;;;;5078664;28;20081;-89
2021/08/10 07:48:46;;;;;;;13.68;8.27;;;17.50;85.30;;;;;;5119081;27;20056;-87
2021/08/10 07:51:13;;;;;;;13.18;7.95;;;17.60;85.40;;;;;;5088868;28;20040;-87
2021/08/10 07:53:42;;;;;;;14.40;7.75;;;17.70;85.30;;;;;;5076212;28;20060;-87
2021/08/10 07:56:09;;;;;;;12.48;7.90;;;17.80;85.20;;;;;;5076752;28;20040;-87
2021/08/10 07:58:35;;;;;;;15.80;10.07;;;17.90;85.20;;;;;;5080650;28;20460;-86
2021/08/10 08:01:04;;;;;;;13.27;9.80;;;17.90;85.10;;;;;;5087335;28;20563;-87
2021/08/10 08:03:32;;;;;;;17.65;11.30;;;17.90;85.10;;;;;;5074275;28;20383;-87
2021/08/10 08:05:59;;;;;;;16.90;10.38;;;18.10;85.10;;;;;;5074944;28;20174;-86
2021/08/10 08:08:28;;;;;;;17.45;11.25;;;18.20;85.00;;;;;;5077402;28;20044;-86
2021/08/10 08:10:54;;;;;;;18.02;11.50;;;18.20;84.90;;;;;;5083961;28;20063;-89
2021/08/10 08:13:24;;;;;;;15.90;9.60;;;18.30;84.70;;;;;;5116789;27;20044;-86
2021/08/10 08:15:53;;;;;;;16.08;11.98;;;18.30;84.30;;;;;;5077335;28;20052;-87
2021/08/10 08:18:21;;;;;;;18.52;13.05;;;18.40;84.20;;;;;;5073224;28;20097;-85
2021/08/10 08:20:48;;;;;;;14.68;11.27;;;18.40;84.00;;;;;;5071895;28;20056;-85
2021/08/10 08:23:17;;;;;;;21.15;14.85;;;18.40;83.90;;;;;;5076565;28;20082;-87
2021/08/10 08:25:44;;;;;;;18.40;13.52;;;18.40;83.80;;;;;;5081717;28;20098;-87
2021/08/10 08:28:12;;;;;;;19.02;12.18;;;18.40;83.80;;;;;;5085074;28;20053;-87
2021/08/10 08:30:40;;;;;;;19.80;13.70;;;18.40;83.70;;;;;;5088800;28;20048;-87
2021/08/10 08:33:09;;;;;;;21.92;12.43;;;18.50;83.70;;;;;;5080668;28;20481;-85
2021/08/10 08:35:38;;;;;;;24.42;12.52;;;18.50;83.60;;;;;;5090224;28;20121;-86
2021/08/10 08:38:06;;;;;;;19.77;13.07;;;18.50;83.50;;;;;;5086876;28;20630;-88
2021/08/10 08:40:41;;;;;;;18.08;13.18;;;18.60;83.30;;;;;;5087879;28;20052;-86
2021/08/10 08:43:08;;;;;;;15.43;11.77;;;18.60;83.30;;;;;;5076145;28;20044;-86
2021/08/10 08:45:35;;;;;;;14.25;11.27;;;18.70;83.20;;;;;;5074451;28;20106;-87
2021/08/10 08:48:03;;;;;;;13.55;10.63;;;18.70;83.00;;;;;;5073535;28;20568;-87
2021/08/10 08:50:32;;;;;;;13.70;10.50;;;18.70;82.60;;;;;;5089636;28;20047;-88
2021/08/10 08:53:03;;;;;;;13.18;10.48;;;18.70;82.40;;;;;;5080300;28;20483;-86
2021/08/10 08:55:31;;;;;;;15.30;10.68;;;18.80;82.40;;;;;;5076130;28;20044;-87
2021/08/10 08:58:00;;;;;;;12.82;10.18;;;18.80;82.50;;;;;;5076215;28;20044;-86
2021/08/10 09:00:27;;;;;;;14.82;9.73;;;18.90;82.40;;;;;;5072926;28;20055;-86
2021/08/10 09:02:54;;;;;;;12.68;9.77;;;18.90;82.30;;;;;;5074427;28;20080;-88
2021/08/10 09:05:21;;;;;;;15.18;10.32;;;18.90;82.30;;;;;;5071222;28;20589;-87
2021/08/10 09:07:48;;;;;;;14.93;10.35;;;18.90;82.20;;;;;;5069767;28;20052;-88
2021/08/10 09:10:17;;;;;;;14.98;9.98;;;18.90;82.20;;;;;;5076565;28;20040;-89
2021/08/10 09:12:50;;;;;;;11.45;8.85;;;19.00;82.30;;;;;;5075172;28;20044;-90
2021/08/10 09:15:39;;;;;;;15.50;8.80;;;19.10;82.30;;;;;;5087866;28;20044;-89
2021/08/10 09:18:15;;;;;;;11.63;8.98;;;19.30;82.20;;;;;;5087578;28;20340;-88
2021/08/10 09:21:08;;;;;;;11.60;8.88;;;19.40;82.10;;;;;;5070426;28;20068;-86
2021/08/10 09:23:43;;;;;;;11.97;8.40;;;19.60;81.90;;;;;;5076126;28;20056;-86
2021/08/10 09:26:17;;;;;;;13.60;7.32;;;19.80;81.70;;;;;;5076016;28;20053;-88
2021/08/10 09:28:44;;;;;;;11.35;7.30;;;19.90;81.50;;;;;;5075742;28;20044;-89
2021/08/10 09:31:40;;;;;;;11.90;7.05;;;20.10;81.00;;;;;;5076108;28;20535;-86
2021/08/10 09:34:18;;;;;;;9.45;6.70;;;20.20;80.50;;;;;;5075847;28;20048;-90
2021/08/10 09:36:45;;;;;;;10.32;7.63;;;20.40;80.20;;;;;;5073658;28;20094;-89
2021/08/10 09:39:12;;;;;;;10.18;6.57;;;20.40;79.90;;;;;;5086845;28;20473;-86
2021/08/10 09:41:40;;;;;;;7.93;6.05;;;20.50;79.50;;;;;;5075857;28;20049;-88
2021/08/10 09:44:19;;;;;;;10.88;6.80;;;20.60;79.20;;;;;;5082647;28;20074;-89
2021/08/10 09:46:50;;;;;;;9.07;6.45;;;20.60;78.80;;;;;;5079617;28;20057;-89
2021/08/10 09:49:19;;;;;;;7.45;6.25;;;20.60;78.60;;;;;;5075282;28;20536;-89
2021/08/10 09:51:52;;;;;;;8.85;6.70;;;20.60;78.30;;;;;;5071566;28;20080;-90
2021/08/10 09:54:21;;;;;;;8.27;6.57;;;20.60;77.90;;;;;;5070904;28;20139;-89
2021/08/10 09:56:55;;;;;;;12.85;6.78;;;20.60;77.80;;;;;;5071211;28;20363;-89
2021/08/10 09:59:25;;;;;;;8.88;6.43;;;20.60;77.50;;;;;;5075245;28;20102;-90
2021/08/10 10:01:55;;;;;;;9.77;7.28;;;20.50;77.30;;;;;;5084786;28;20040;-90
2021/08/10 10:04:32;;;;;;;8.48;6.70;;;20.50;77.20;;;;;;5082909;28;20044;-90
2021/08/10 10:07:10;;;;;;;13.30;6.70;;;20.50;77.20;;;;;;5075949;28;20048;-89
2021/08/10 10:09:38;;;;;;;9.10;6.93;;;20.50;77.20;;;;;;5074283;28;20049;-89
2021/08/10 10:12:06;;;;;;;9.95;6.78;;;20.50;77.00;;;;;;5071735;28;20052;-88
2021/08/10 10:14:33;;;;;;;9.05;7.07;;;20.60;77.00;;;;;;5075543;28;20048;-90
2021/08/10 10:17:04;;;;;;;10.85;7.82;;;20.50;77.10;;;;;;5076062;28;20053;-88
2021/08/10 10:19:38;;;;;;;10.23;7.10;;;20.50;77.00;;;;;;5078159;28;20056;-90
2021/08/10 10:22:14;;;;;;;15.45;7.45;;;20.50;77.00;;;;;;5090839;28;20056;-87
2021/08/10 10:24:52;;;;;;;9.93;7.25;;;20.50;76.90;;;;;;5090328;28;20048;-89
2021/08/10 10:27:20;;;;;;;10.13;7.13;;;20.40;76.70;;;;;;5084704;28;20502;-91
2021/08/10 10:29:49;;;;;;;11.68;8.10;;;20.40;76.70;;;;;;5090456;28;20048;-89
2021/08/10 10:32:19;;;;;;;11.57;8.13;;;20.40;76.70;;;;;;5092931;28;20097;-87
2021/08/10 10:34:47;;;;;;;12.95;7.90;;;20.40;76.70;;;;;;5082355;28;20052;-87
2021/08/10 10:37:20;;;;;;;15.00;8.32;;;20.40;76.80;;;;;;5078945;28;20051;-90
2021/08/10 10:39:51;;;;;;;12.93;9.02;;;20.40;76.80;;;;;;5078605;28;20048;-88
2021/08/10 10:42:18;;;;;;;9.80;8.57;;;20.40;76.90;;;;;;5089626;28;20097;-87
2021/08/10 10:44:49;;;;;;;11.95;9.13;;;20.30;77.00;;;;;;5093713;28;20444;-88
2021/08/10 10:47:26;;;;;;;10.90;8.02;;;20.40;77.00;;;;;;5088082;28;20048;-87
2021/08/10 10:49:55;;;;;;;10.65;8.43;;;20.30;77.00;;;;;;5082588;28;20501;-88
2021/08/10 10:52:30;;;;;;;9.73;8.45;;;20.30;77.10;;;;;;5078768;28;20045;-88
2021/08/10 10:54:58;;;;;;;10.27;7.55;;;20.30;77.00;;;;;;5079268;28;20051;-90
2021/08/10 10:57:31;;;;;;;9.00;7.47;;;20.30;76.80;;;;;;5076621;28;20097;-93
2021/08/10 11:00:04;;;;;;;9.40;7.35;;;20.30;76.60;;;;;;5092505;28;20044;-89
2021/08/10 11:02:32;;;;;;;11.73;7.47;;;20.30;76.60;;;;;;5077631;28;20056;-92
2021/08/10 11:05:08;;;;;;;11.30;7.45;;;20.30;76.50;;;;;;5085885;28;20044;-93
2021/08/10 11:07:47;;;;;;;8.48;7.38;;;20.20;76.50;;;;;;5084813;28;20048;-94
2021/08/10 11:10:36;;;;;;;12.45;7.60;;;20.20;76.60;;;;;;5078621;28;20041;-92
2021/08/10 11:13:19;;;;;;;15.30;7.20;;;20.20;76.70;;;;;;5076990;28;20059;-89
2021/08/10 11:15:45;;;;;;;10.43;7.75;;;20.20;76.90;;;;;;5090086;28;20464;-92
2021/08/10 11:18:12;;;;;;;16.65;7.72;;;20.20;76.90;;;;;;5074321;28;20131;-89
2021/08/10 11:20:53;;;;;;;11.18;6.82;;;20.20;76.80;;;;;;5089903;28;20498;-91
2021/08/10 11:23:20;;;;;;;11.88;7.50;;;20.20;76.80;;;;;;5087157;28;20547;-91
2021/08/10 11:25:49;;;;;;;11.88;7.15;;;20.30;76.90;;;;;;5081477;28;20059;-93
2021/08/10 11:28:27;;;;;;;9.48;6.55;;;20.30;76.90;;;;;;5086005;28;20106;-91
2021/08/10 11:31:06;;;;;;;8.85;6.40;;;20.30;76.80;;;;;;5076404;28;20056;-92
2021/08/10 11:33:42;;;;;;;8.20;6.07;;;20.30;76.80;;;;;;5074999;28;20036;-93
2021/08/10 11:36:12;;;;;;;8.00;5.90;;;20.30;76.80;;;;;;5075343;28;20056;-92
2021/08/10 11:38:45;;;;;;;8.65;5.35;;;20.30;76.90;;;;;;5089660;28;20127;-92
2021/08/10 11:41:14;;;;;;;9.40;5.23;;;20.30;77.00;;;;;;5076330;28;20049;-90
2021/08/10 11:43:49;;;;;;;7.47;5.10;;;20.40;77.10;;;;;;5082017;28;20775;-90
2021/08/10 11:46:24;;;;;;;5.88;4.50;;;20.30;76.80;;;;;;5090135;28;20045;-91
2021/08/10 11:48:53;;;;;;;6.65;4.03;;;20.20;76.60;;;;;;5089473;28;20105;-91
2021/08/10 11:51:38;;;;;;;6.53;4.05;;;20.20;76.50;;;;;;5076112;28;20052;-89
2021/08/10 11:54:17;;;;;;;7.13;4.35;;;20.20;76.60;;;;;;5080478;28;20056;-90
2021/08/10 11:56:49;;;;;;;8.77;3.85;;;20.10;76.70;;;;;;5092306;28;20071;-93
2021/08/10 11:59:25;;;;;;;8.23;3.67;;;20.20;76.90;;;;;;5072950;28;20102;-90
2021/08/10 12:01:54;;;;;;;5.63;3.80;;;20.10;77.10;;;;;;5084183;28;20093;-95
2021/08/10 12:04:24;;;;;;;7.82;4.93;;;20.10;77.30;;;;;;5085090;28;20040;-86
2021/08/10 12:06:54;;;;;;;7.00;4.68;;;20.10;77.50;;;;;;5078078;28;20052;-91
2021/08/10 12:09:26;;;;;;;7.05;4.13;;;20.10;77.90;;;;;;5072811;28;20740;-89
2021/08/10 12:11:55;;;;;;;7.18;3.92;;;20.10;78.40;;;;;;5075785;28;20110;-91
2021/08/10 12:14:28;;;;;;;9.30;3.80;;;20.10;78.80;;;;;;5073165;28;20056;-92
2021/08/10 12:17:04;;;;;;;7.43;4.20;;;20.10;79.10;;;;;;5071896;28;20103;-89
2021/08/10 12:19:43;;;;;;;5.90;3.53;;;20.20;79.20;;;;;;5073769;28;20044;-91
2021/08/10 12:22:21;;;;;;;6.70;3.85;;;20.30;79.10;;;;;;5077486;28;20056;-89
2021/08/10 12:24:50;;;;;;;5.82;3.22;;;20.40;79.00;;;;;;5074772;28;20047;-88
2021/08/10 12:27:19;;;;;;;12.68;3.60;;;20.50;78.80;;;;;;5094834;28;20052;-90
2021/08/10 12:29:48;;;;;;;5.70;3.10;;;20.50;78.60;;;;;;5072496;28;20109;-90
2021/08/10 12:32:29;;;;;;;10.20;3.28;;;20.60;78.40;;;;;;5086621;28;20117;-91
2021/08/10 12:34:56;;;;;;;5.65;3.05;;;20.80;77.70;;;;;;5090534;28;20097;-91
2021/08/10 12:37:33;;;;;;;5.43;3.30;;;20.80;77.20;;;;;;5085923;28;20048;-90
2021/08/10 12:40:01;;;;;;;6.35;3.03;;;20.90;77.10;;;;;;5073975;28;20048;-91
2021/08/10 12:42:28;;;;;;;6.18;3.45;;;20.90;76.90;;;;;;5087740;28;20041;-92
2021/08/10 12:44:56;;;;;;;6.03;3.30;;;21.00;76.80;;;;;;5074836;28;20469;-91
2021/08/10 12:47:40;;;;;;;5.65;3.25;;;21.10;76.70;;;;;;5086673;28;20052;-91
2021/08/10 12:50:29;;;;;;;6.22;3.40;;;21.20;76.40;;;;;;5079769;28;20044;-89
2021/08/10 12:52:59;;;;;;;6.03;3.50;;;21.30;76.00;;;;;;5076036;28;20049;-91
2021/08/10 12:55:46;;;;;;;6.32;3.30;;;21.40;75.70;;;;;;5078422;28;20496;-90